Time;durP1;ratioP1;P1;durP2;ratioP2;P2;SDS_P1;SDS_P2;PMS_P1;PMS_P2;Temp;Humidity;BMP_temperature;BMP_pressure;BME280_temperature;BME280_humidity;BME280_pressure;Samples;Min_cycle;Max_cycle;Signal;HPM_P1;HPM_P2
2022/11/10 00:00:55;;;;;;;20.95;4.90;;;11.60;93.30;;;;;;5024439;28;20440;-71
2022/11/10 00:03:21;;;;;;;16.55;5.25;;;11.60;93.40;;;;;;5028167;28;20566;-69
2022/11/10 00:05:47;;;;;;;18.67;5.65;;;11.60;93.50;;;;;;5015683;28;20036;-72
2022/11/10 00:08:13;;;;;;;21.73;5.32;;;11.60;93.40;;;;;;5018979;28;20097;-71
2022/11/10 00:11:00;;;;;;;25.80;5.30;;;11.60;93.30;;;;;;5013318;28;20034;-69
2022/11/10 00:13:31;;;;;;;23.73;6.75;;;11.60;93.30;;;;;;5024124;28;20055;-72
2022/11/10 00:18:43;;;;;;;21.95;6.15;;;11.50;93.30;;;;;;5026801;28;20502;-70
2022/11/10 00:21:10;;;;;;;17.58;5.50;;;11.50;93.40;;;;;;5030171;28;20029;-71
2022/11/10 00:23:36;;;;;;;22.02;6.45;;;11.50;93.40;;;;;;5024913;28;20095;-71
2022/11/10 00:26:02;;;;;;;24.85;5.00;;;11.50;93.50;;;;;;5018596;28;20026;-70
2022/11/10 00:28:30;;;;;;;22.63;5.78;;;11.50;93.50;;;;;;5018675;28;20024;-71
2022/11/10 00:30:56;;;;;;;24.73;6.20;;;11.50;93.50;;;;;;5022985;28;20115;-70
2022/11/10 00:33:22;;;;;;;18.77;5.13;;;11.50;93.40;;;;;;5026556;28;20025;-70
2022/11/10 00:35:47;;;;;;;22.17;5.72;;;11.40;93.40;;;;;;5021509;28;20036;-71
2022/11/10 00:38:13;;;;;;;23.73;5.63;;;11.50;93.40;;;;;;5024647;28;20464;-70
2022/11/10 00:40:39;;;;;;;22.75;5.80;;;11.50;93.30;;;;;;5030100;28;20116;-69
2022/11/10 00:43:05;;;;;;;23.65;6.05;;;11.50;93.30;;;;;;5020396;28;20048;-71
2022/11/10 00:45:30;;;;;;;15.43;5.88;;;11.50;93.40;;;;;;5029953;28;20029;-71
2022/11/10 00:47:56;;;;;;;22.10;5.88;;;11.50;93.40;;;;;;5019053;28;20090;-70
2022/11/10 00:50:21;;;;;;;19.50;6.18;;;11.40;93.40;;;;;;5029700;28;21548;-71
2022/11/10 00:52:47;;;;;;;22.15;5.75;;;11.40;93.40;;;;;;5015589;28;20092;-70
2022/11/10 00:55:13;;;;;;;20.45;6.25;;;11.40;93.40;;;;;;5018411;28;20030;-71
2022/11/10 00:57:39;;;;;;;20.17;5.43;;;11.40;93.40;;;;;;5029582;28;20032;-70
2022/11/10 01:00:07;;;;;;;22.00;6.65;;;11.40;93.40;;;;;;5026776;28;20029;-70
2022/11/10 01:02:33;;;;;;;20.40;5.97;;;11.40;93.30;;;;;;5024239;28;20407;-70
2022/11/10 01:04:59;;;;;;;13.98;4.28;;;11.40;93.40;;;;;;5022983;28;20030;-70
2022/11/10 01:07:25;;;;;;;21.33;5.93;;;11.40;93.30;;;;;;5027139;28;20017;-71
2022/11/10 01:09:51;;;;;;;21.88;5.72;;;11.40;93.40;;;;;;5028117;28;20026;-70
2022/11/10 01:12:16;;;;;;;20.83;5.18;;;11.30;93.40;;;;;;5024130;28;20037;-71
2022/11/10 01:14:42;;;;;;;22.30;5.80;;;11.30;93.40;;;;;;5024381;28;20053;-70
2022/11/10 01:17:08;;;;;;;21.23;6.32;;;11.40;93.50;;;;;;5017455;28;20093;-71
2022/11/10 01:19:33;;;;;;;24.50;6.00;;;11.30;93.40;;;;;;5014853;28;20080;-71
2022/11/10 01:21:59;;;;;;;17.75;4.93;;;11.30;93.40;;;;;;5016318;28;20030;-70
2022/11/10 01:24:25;;;;;;;18.10;5.03;;;11.30;93.50;;;;;;5014939;28;20049;-71
2022/11/10 01:26:51;;;;;;;23.10;6.63;;;11.30;93.60;;;;;;5025080;28;20029;-70
2022/11/10 01:29:16;;;;;;;23.65;5.88;;;11.30;93.60;;;;;;5013698;28;20103;-70
2022/11/10 01:31:43;;;;;;;27.83;6.78;;;11.30;93.60;;;;;;5026402;28;20041;-71
2022/11/10 01:34:08;;;;;;;23.00;5.22;;;11.20;93.70;;;;;;5010924;28;20044;-70
2022/11/10 01:36:35;;;;;;;17.77;5.07;;;11.20;94.10;;;;;;5022564;28;20041;-71
2022/11/10 01:39:01;;;;;;;17.73;5.70;;;11.20;93.80;;;;;;5025072;28;20035;-70
2022/11/10 01:41:26;;;;;;;20.38;5.60;;;11.20;93.80;;;;;;5018689;28;20033;-71
2022/11/10 01:43:52;;;;;;;20.30;6.55;;;11.20;93.80;;;;;;5025287;28;20034;-70
2022/11/10 01:46:18;;;;;;;22.35;5.28;;;11.20;93.80;;;;;;5022192;28;20024;-70
2022/11/10 01:48:59;;;;;;;21.17;5.45;;;11.20;93.80;;;;;;5016974;28;20029;-73
2022/11/10 01:51:34;;;;;;;25.08;6.65;;;11.20;93.80;;;;;;5015596;28;20026;-71
2022/11/10 01:54:05;;;;;;;25.45;6.20;;;11.20;93.80;;;;;;5019799;28;20029;-71
2022/11/10 01:56:35;;;;;;;18.88;5.10;;;11.10;94.00;;;;;;5019282;28;20026;-71
2022/11/10 01:59:04;;;;;;;;;;;11.10;94.00;;;;;;5027535;28;20102;-73
2022/11/10 02:01:30;;;;;;;17.85;4.90;;;11.10;93.90;;;;;;5027364;28;20035;-71
2022/11/10 02:04:02;;;;;;;23.23;6.00;;;11.10;93.90;;;;;;5022259;28;20117;-71
2022/11/10 02:06:37;;;;;;;20.67;5.97;;;11.10;94.00;;;;;;5015715;28;20034;-70
2022/11/10 02:09:02;;;;;;;22.80;5.15;;;11.00;94.10;;;;;;5015188;28;20060;-71
2022/11/10 02:11:29;;;;;;;20.10;5.88;;;11.00;94.10;;;;;;5015087;28;20033;-70
2022/11/10 02:13:56;;;;;;;21.38;5.78;;;11.00;94.10;;;;;;5021536;28;20033;-70
2022/11/10 02:16:22;;;;;;;20.35;7.38;;;11.00;94.30;;;;;;5021351;28;20017;-71
2022/11/10 02:18:49;;;;;;;23.85;6.32;;;11.00;94.30;;;;;;5016915;28;20029;-71
2022/11/10 02:21:19;;;;;;;26.20;5.63;;;11.00;94.20;;;;;;5018764;28;20056;-71
2022/11/10 02:23:51;;;;;;;19.35;5.00;;;11.10;94.30;;;;;;5014648;28;20152;-72
2022/11/10 02:26:22;;;;;;;19.92;6.20;;;11.10;94.20;;;;;;5014652;28;20022;-70
2022/11/10 02:28:47;;;;;;;20.13;6.88;;;11.10;94.30;;;;;;5018711;28;20492;-71
2022/11/10 02:31:13;;;;;;;24.98;7.40;;;11.00;94.20;;;;;;5021279;28;20040;-70
2022/11/10 02:33:39;;;;;;;21.85;5.72;;;11.10;94.40;;;;;;5016477;28;20079;-70
2022/11/10 02:36:05;;;;;;;23.05;5.68;;;11.10;94.30;;;;;;5008726;28;20123;-70
2022/11/10 02:38:44;;;;;;;19.88;5.38;;;11.10;94.30;;;;;;5024339;28;20745;-71
2022/11/10 02:41:10;;;;;;;24.23;5.82;;;11.10;94.40;;;;;;5007663;28;20030;-70
2022/11/10 02:43:37;;;;;;;18.70;5.88;;;11.20;94.30;;;;;;5014129;28;20022;-70
2022/11/10 02:46:02;;;;;;;19.50;5.70;;;11.20;94.60;;;;;;5012342;28;20809;-71
2022/11/10 02:48:28;;;;;;;17.92;6.13;;;11.20;94.30;;;;;;5013110;28;20135;-69
2022/11/10 02:51:01;;;;;;;25.38;6.60;;;11.20;94.30;;;;;;5021636;28;20117;-71
2022/11/10 02:53:27;;;;;;;23.13;6.95;;;11.30;94.40;;;;;;5021587;28;20524;-71
2022/11/10 02:55:52;;;;;;;19.77;5.43;;;11.20;94.30;;;;;;5019309;28;20148;-71
2022/11/10 02:58:18;;;;;;;19.60;5.68;;;11.30;94.30;;;;;;5017061;28;20074;-69
2022/11/10 03:00:43;;;;;;;16.67;5.65;;;11.30;94.30;;;;;;5019445;28;20045;-71
2022/11/10 03:03:09;;;;;;;23.35;8.30;;;11.30;94.30;;;;;;5017208;28;20037;-71
2022/11/10 03:05:38;;;;;;;24.48;7.38;;;11.30;94.30;;;;;;5014222;28;20041;-72
2022/11/10 03:08:04;;;;;;;20.92;6.65;;;11.20;94.50;;;;;;5012892;28;20159;-71
2022/11/10 03:10:30;;;;;;;16.77;5.35;;;11.20;94.40;;;;;;5027807;28;20152;-71
2022/11/10 03:12:57;;;;;;;19.75;5.22;;;11.20;94.40;;;;;;5029527;28;20026;-70
2022/11/10 03:15:24;;;;;;;27.65;5.75;;;11.20;94.40;;;;;;5019944;28;20044;-70
2022/11/10 03:17:54;;;;;;;16.83;4.90;;;11.20;94.10;;;;;;5019997;28;20045;-70
2022/11/10 03:20:20;;;;;;;20.13;5.63;;;11.10;94.10;;;;;;5026576;28;20021;-70
2022/11/10 03:22:46;;;;;;;21.73;6.25;;;11.10;94.30;;;;;;5025581;28;20471;-70
2022/11/10 03:25:11;;;;;;;13.10;4.85;;;11.10;94.30;;;;;;5021199;28;20105;-70
2022/11/10 03:27:38;;;;;;;21.05;6.15;;;11.10;94.30;;;;;;5017657;28;20030;-72
2022/11/10 03:30:05;;;;;;;19.08;5.38;;;11.10;94.30;;;;;;5016725;28;20037;-70
2022/11/10 03:32:31;;;;;;;25.23;6.70;;;11.10;94.40;;;;;;5011509;28;20030;-71
2022/11/10 03:34:56;;;;;;;25.05;7.20;;;11.10;94.40;;;;;;5019993;28;20486;-71
2022/11/10 03:37:22;;;;;;;19.23;5.30;;;11.10;94.40;;;;;;5016633;28;20084;-70
2022/11/10 03:39:48;;;;;;;22.42;7.03;;;11.10;94.30;;;;;;5023253;28;20017;-70
2022/11/10 03:42:13;;;;;;;27.77;5.38;;;11.10;94.30;;;;;;5016964;28;20041;-72
2022/11/10 03:44:39;;;;;;;16.27;5.78;;;11.00;94.20;;;;;;5017666;28;20041;-71
2022/11/10 03:47:05;;;;;;;20.90;5.20;;;11.00;94.20;;;;;;5022898;28;20156;-70
2022/11/10 03:49:30;;;;;;;20.00;5.00;;;11.00;94.20;;;;;;5011165;28;20032;-71
2022/11/10 03:51:56;;;;;;;22.02;6.32;;;11.00;94.20;;;;;;5027258;28;20061;-72
2022/11/10 03:54:22;;;;;;;21.40;4.88;;;11.00;94.20;;;;;;5010767;28;20120;-70
2022/11/10 03:56:48;;;;;;;22.60;5.57;;;11.00;94.20;;;;;;5020217;28;20021;-71
2022/11/10 03:59:14;;;;;;;18.88;5.63;;;11.00;94.20;;;;;;5008120;28;20034;-70
2022/11/10 04:01:40;;;;;;;23.40;6.15;;;11.00;94.30;;;;;;5025707;28;20029;-71
2022/11/10 04:08:57;;;;;;;20.27;6.78;;;11.00;94.30;;;;;;5016626;28;20690;-69
2022/11/10 04:09:35;;;;;;;22.13;6.10;;;11.00;94.30;;;;;;5010966;28;20060;-71
2022/11/10 04:17:30;;;;;;;19.00;4.95;;;10.90;94.50;;;;;;5030389;28;20048;-70
2022/11/10 04:19:55;;;;;;;19.52;6.13;;;10.90;94.40;;;;;;5016822;28;20412;-71
2022/11/10 04:23:25;;;;;;;17.20;5.45;;;10.80;94.50;;;;;;5030123;28;20045;-71
2022/11/10 04:25:07;;;;;;;23.02;6.68;;;10.80;94.50;;;;;;5012878;28;20136;-71
2022/11/10 04:27:32;;;;;;;20.90;5.55;;;10.80;94.40;;;;;;5026556;28;20025;-71
2022/11/10 04:29:58;;;;;;;15.27;5.85;;;10.80;94.50;;;;;;5024401;28;20597;-70
2022/11/10 04:32:24;;;;;;;25.10;7.20;;;10.80;94.50;;;;;;5021874;28;20087;-71
2022/11/10 04:34:49;;;;;;;23.65;5.70;;;10.80;94.60;;;;;;5018160;28;20026;-71
2022/11/10 04:37:15;;;;;;;20.42;5.40;;;10.80;94.70;;;;;;5023284;28;20116;-70
2022/11/10 04:39:40;;;;;;;22.02;6.35;;;10.80;94.70;;;;;;5013066;28;20488;-72
2022/11/10 04:42:06;;;;;;;21.40;6.10;;;10.80;94.60;;;;;;5019236;28;20044;-71
2022/11/10 04:44:32;;;;;;;16.83;5.10;;;10.80;94.60;;;;;;5022153;28;20491;-71
2022/11/10 04:46:57;;;;;;;25.38;7.50;;;10.70;94.80;;;;;;5018556;28;20029;-71
2022/11/10 04:49:23;;;;;;;24.58;6.32;;;10.70;94.90;;;;;;5021191;28;20037;-70
2022/11/10 04:51:49;;;;;;;28.52;6.65;;;10.70;95.00;;;;;;5019763;28;20144;-71
2022/11/10 04:54:14;;;;;;;19.70;6.40;;;10.70;94.90;;;;;;5026662;28;20029;-70
2022/11/10 04:56:40;;;;;;;27.90;7.85;;;10.70;94.90;;;;;;5021936;28;20093;-70
2022/11/10 04:59:05;;;;;;;20.58;5.70;;;10.70;94.90;;;;;;5013565;28;20022;-71
2022/11/10 05:01:31;;;;;;;20.60;6.40;;;10.80;94.80;;;;;;5013386;28;20040;-71
2022/11/10 05:03:57;;;;;;;16.75;4.95;;;10.80;94.90;;;;;;5026444;28;20083;-70
2022/11/10 05:06:24;;;;;;;24.50;6.10;;;10.80;94.70;;;;;;5020050;28;20032;-70
2022/11/10 05:08:50;;;;;;;17.02;4.85;;;10.80;94.70;;;;;;5026956;28;20488;-71
2022/11/10 05:11:16;;;;;;;22.20;6.07;;;10.80;94.80;;;;;;5018803;28;20076;-71
2022/11/10 05:13:43;;;;;;;21.52;5.95;;;10.80;94.70;;;;;;5022597;28;20052;-72
2022/11/10 05:16:09;;;;;;;21.77;5.82;;;10.80;94.80;;;;;;5013228;28;20030;-71
2022/11/10 05:18:36;;;;;;;24.13;6.15;;;10.80;94.80;;;;;;5025576;28;20510;-71
2022/11/10 05:21:02;;;;;;;27.73;6.25;;;10.80;94.80;;;;;;5019465;28;20033;-70
2022/11/10 05:23:36;;;;;;;19.52;5.30;;;10.80;94.80;;;;;;5023579;28;20045;-72
2022/11/10 05:26:08;;;;;;;19.08;5.20;;;10.80;94.80;;;;;;5027228;28;20049;-71
2022/11/10 05:28:34;;;;;;;17.30;4.80;;;10.80;94.90;;;;;;5017766;28;20038;-71
2022/11/10 05:31:00;;;;;;;19.23;5.60;;;10.80;95.00;;;;;;5025688;28;20029;-70
2022/11/10 05:33:25;;;;;;;20.77;5.30;;;10.80;95.00;;;;;;5017982;28;20041;-70
2022/11/10 05:35:51;;;;;;;15.93;4.68;;;10.70;95.00;;;;;;5023692;28;20026;-72
2022/11/10 05:38:17;;;;;;;23.60;5.35;;;10.70;95.10;;;;;;5016078;28;20060;-71
2022/11/10 05:40:42;;;;;;;16.90;4.72;;;10.80;95.10;;;;;;5025727;28;20033;-71
2022/11/10 05:43:09;;;;;;;24.00;5.22;;;10.80;95.00;;;;;;5030848;28;20099;-70
2022/11/10 05:45:34;;;;;;;27.50;7.07;;;10.80;95.00;;;;;;5023053;28;20479;-69
2022/11/10 05:48:00;;;;;;;21.00;5.43;;;10.80;94.90;;;;;;5014755;28;20057;-70
2022/11/10 05:50:26;;;;;;;21.65;4.85;;;10.70;95.00;;;;;;5020964;28;20084;-71
2022/11/10 05:52:53;;;;;;;20.92;4.95;;;10.70;95.00;;;;;;5022734;28;20079;-72
2022/11/10 05:55:21;;;;;;;23.48;5.40;;;10.70;95.00;;;;;;5016872;28;20562;-70
2022/11/10 05:57:49;;;;;;;24.10;5.00;;;10.80;94.90;;;;;;5007353;28;20380;-72
2022/11/10 06:00:17;;;;;;;21.75;5.57;;;10.80;94.90;;;;;;5023659;28;20029;-70
2022/11/10 06:02:43;;;;;;;23.92;5.93;;;10.70;95.00;;;;;;5020113;28;20029;-72
2022/11/10 06:05:09;;;;;;;22.88;5.43;;;10.70;94.90;;;;;;5022684;28;20052;-70
2022/11/10 06:07:36;;;;;;;25.27;5.68;;;10.70;94.90;;;;;;5019189;28;20026;-70
2022/11/10 06:10:02;;;;;;;21.48;5.95;;;10.70;94.90;;;;;;5018965;28;20029;-72
2022/11/10 06:12:30;;;;;;;30.17;6.22;;;10.70;94.80;;;;;;5022874;28;20356;-71
2022/11/10 06:14:57;;;;;;;21.45;5.85;;;10.70;94.90;;;;;;5018863;28;20029;-71
2022/11/10 06:17:25;;;;;;;18.25;4.93;;;10.70;94.90;;;;;;5016855;28;20025;-70
2022/11/10 06:19:51;;;;;;;25.55;4.90;;;10.70;94.90;;;;;;5020239;28;20460;-71
2022/11/10 06:22:17;;;;;;;26.58;6.95;;;10.70;94.90;;;;;;5025795;28;20114;-71
2022/11/10 06:24:42;;;;;;;20.77;5.55;;;10.70;95.00;;;;;;5016013;28;20049;-70
2022/11/10 06:27:08;;;;;;;20.13;5.53;;;10.60;94.90;;;;;;5024755;28;20026;-70
2022/11/10 06:29:33;;;;;;;29.13;5.85;;;10.60;95.30;;;;;;5015127;28;20065;-70
2022/11/10 06:31:59;;;;;;;26.83;5.20;;;10.60;95.10;;;;;;5027242;28;20820;-70
2022/11/10 06:34:25;;;;;;;33.47;5.95;;;10.50;95.30;;;;;;5013601;28;20030;-70
2022/11/10 06:36:51;;;;;;;28.55;5.65;;;10.60;95.30;;;;;;5022109;28;20427;-71
2022/11/10 06:39:16;;;;;;;26.60;5.90;;;10.60;95.20;;;;;;5014513;28;20096;-69
2022/11/10 06:41:43;;;;;;;15.40;4.78;;;10.50;95.30;;;;;;5023071;28;20044;-71
2022/11/10 06:44:10;;;;;;;25.67;5.80;;;10.50;95.40;;;;;;5022977;28;20400;-70
2022/11/10 06:46:36;;;;;;;22.45;4.22;;;10.60;95.30;;;;;;5019311;28;20076;-70
2022/11/10 06:49:02;;;;;;;22.13;5.45;;;10.60;95.30;;;;;;5013004;28;20058;-70
2022/11/10 06:51:28;;;;;;;27.98;6.38;;;10.60;95.30;;;;;;5019776;28;20061;-71
2022/11/10 06:53:54;;;;;;;22.65;5.82;;;10.60;95.30;;;;;;5015996;28;20057;-70
2022/11/10 06:56:20;;;;;;;23.25;4.90;;;10.60;95.00;;;;;;5019525;28;20018;-71
2022/11/10 06:58:45;;;;;;;15.15;4.75;;;10.60;95.10;;;;;;5013919;28;20112;-71
2022/11/10 07:01:11;;;;;;;23.20;5.18;;;10.70;95.00;;;;;;5018227;28;20025;-72
2022/11/10 07:03:37;;;;;;;19.33;5.38;;;10.60;95.10;;;;;;5018460;28;20018;-70
2022/11/10 07:06:03;;;;;;;22.00;5.50;;;10.70;95.10;;;;;;5018942;28;20128;-71
2022/11/10 07:08:29;;;;;;;25.00;5.68;;;10.70;95.20;;;;;;5017073;28;20109;-72
2022/11/10 07:10:55;;;;;;;25.00;6.38;;;10.70;95.20;;;;;;5019903;28;20563;-71
2022/11/10 07:13:21;;;;;;;19.58;4.63;;;10.70;95.20;;;;;;5022894;28;20048;-71
2022/11/10 07:15:47;;;;;;;18.52;4.45;;;10.80;95.30;;;;;;5015599;28;20102;-71
2022/11/10 07:18:13;;;;;;;23.90;5.35;;;10.90;95.20;;;;;;5023339;28;20117;-71
2022/11/10 07:20:39;;;;;;;24.70;4.38;;;11.00;95.00;;;;;;5018662;28;20494;-70
2022/11/10 07:23:06;;;;;;;22.60;4.75;;;11.10;94.80;;;;;;5011273;28;20415;-72
2022/11/10 07:25:36;;;;;;;14.43;3.25;;;11.30;94.80;;;;;;5008275;28;20097;-73
2022/11/10 07:28:09;;;;;;;14.38;4.03;;;11.50;94.80;;;;;;5019195;28;20033;-72
2022/11/10 07:30:35;;;;;;;14.27;3.53;;;11.60;94.50;;;;;;5021182;28;20103;-72
2022/11/10 07:33:13;;;;;;;12.35;3.33;;;11.80;94.30;;;;;;5021788;28;20033;-73
2022/11/10 07:35:40;;;;;;;12.13;2.83;;;12.00;93.80;;;;;;5020903;28;20025;-73
2022/11/10 07:38:09;;;;;;;12.68;3.22;;;12.20;93.60;;;;;;5015748;28;20116;-72
2022/11/10 07:40:35;;;;;;;10.50;3.00;;;12.40;93.30;;;;;;5017694;28;20112;-71
2022/11/10 07:43:01;;;;;;;11.80;3.22;;;12.60;93.00;;;;;;5017140;28;20033;-72
2022/11/10 07:45:27;;;;;;;15.82;3.97;;;12.90;92.40;;;;;;5018528;28;20525;-71
2022/11/10 07:48:04;;;;;;;15.75;3.58;;;13.10;91.80;;;;;;5016758;28;20021;-76
2022/11/10 07:50:32;;;;;;;12.52;2.92;;;13.40;91.70;;;;;;5015654;28;20458;-75
2022/11/10 07:53:25;;;;;;;12.80;3.10;;;13.50;91.20;;;;;;5019946;28;20033;-74
2022/11/10 07:55:52;;;;;;;14.40;3.63;;;13.60;90.40;;;;;;5016099;28;20060;-78
2022/11/10 07:58:18;;;;;;;18.45;3.63;;;13.60;90.60;;;;;;5020451;28;20640;-76
2022/11/10 08:00:46;;;;;;;9.75;2.80;;;13.70;90.30;;;;;;5028927;28;20026;-75
2022/11/10 08:03:14;;;;;;;7.10;2.65;;;13.90;90.10;;;;;;5018416;28;20037;-76
2022/11/10 08:05:40;;;;;;;15.13;3.30;;;14.00;89.70;;;;;;5029856;28;20030;-78
2022/11/10 08:08:06;;;;;;;11.23;3.08;;;14.00;88.80;;;;;;5019135;28;20035;-77
2022/11/10 08:10:34;;;;;;;11.70;3.08;;;14.10;88.70;;;;;;5019648;28;20488;-75
2022/11/10 08:13:03;;;;;;;13.93;3.42;;;14.20;88.30;;;;;;5012590;28;20029;-76
2022/11/10 08:15:31;;;;;;;13.45;3.90;;;14.20;88.40;;;;;;5015450;28;20033;-75
2022/11/10 08:18:02;;;;;;;18.35;3.83;;;14.30;87.40;;;;;;5018731;28;20053;-76
2022/11/10 08:20:28;;;;;;;10.00;2.72;;;14.40;86.60;;;;;;5028795;28;20030;-75
2022/11/10 08:22:58;;;;;;;12.45;3.70;;;14.40;86.10;;;;;;5009580;28;20058;-75
2022/11/10 08:25:26;;;;;;;17.35;3.95;;;14.60;86.20;;;;;;5013777;28;20030;-77
2022/11/10 08:28:02;;;;;;;12.75;3.33;;;14.60;85.40;;;;;;5009597;28;20077;-76
2022/11/10 08:30:28;;;;;;;8.07;2.38;;;14.60;85.20;;;;;;5019800;28;20524;-76
2022/11/10 08:32:56;;;;;;;12.10;3.28;;;14.60;85.40;;;;;;5027856;28;20056;-75
2022/11/10 08:35:28;;;;;;;9.93;2.63;;;14.70;84.90;;;;;;5022197;28;20025;-73
2022/11/10 08:37:54;;;;;;;10.35;2.80;;;14.60;84.40;;;;;;5025195;28;20036;-75
2022/11/10 08:40:21;;;;;;;13.65;2.72;;;14.70;85.50;;;;;;5025213;28;20125;-75
2022/11/10 08:42:47;;;;;;;10.27;2.17;;;14.90;85.80;;;;;;5019083;28;20038;-74
2022/11/10 08:45:14;;;;;;;15.18;2.42;;;15.00;84.50;;;;;;5024050;28;20216;-75
2022/11/10 08:47:40;;;;;;;7.15;2.88;;;15.00;84.90;;;;;;5020608;28;20030;-75
2022/11/10 08:50:06;;;;;;;14.48;3.13;;;15.30;83.90;;;;;;5024958;28;20044;-75
2022/11/10 08:52:32;;;;;;;11.73;2.58;;;15.40;83.20;;;;;;5018979;28;20041;-75
2022/11/10 08:54:58;;;;;;;8.90;2.38;;;15.50;83.50;;;;;;5029377;28;20017;-75
2022/11/10 08:57:24;;;;;;;12.70;3.40;;;15.70;83.20;;;;;;5024616;28;20026;-75
2022/11/10 08:59:49;;;;;;;11.93;2.50;;;15.90;83.10;;;;;;5020531;28;20020;-76
2022/11/10 09:02:15;;;;;;;16.90;3.55;;;16.10;82.70;;;;;;5022077;28;20041;-75
2022/11/10 09:04:41;;;;;;;14.32;3.30;;;16.10;80.50;;;;;;5015811;28;20061;-72
2022/11/10 09:07:06;;;;;;;14.38;3.35;;;16.00;79.50;;;;;;5018147;28;20034;-74
2022/11/10 09:09:32;;;;;;;17.58;3.42;;;15.80;79.80;;;;;;5015292;28;20053;-76
2022/11/10 09:12:00;;;;;;;12.48;3.30;;;15.70;80.30;;;;;;5017582;28;20050;-74
2022/11/10 09:14:25;;;;;;;20.55;4.05;;;15.70;80.80;;;;;;5017900;28;20036;-75
2022/11/10 09:16:51;;;;;;;13.43;3.63;;;15.70;81.10;;;;;;5019911;28;20025;-74
2022/11/10 09:19:18;;;;;;;13.20;3.63;;;15.70;80.90;;;;;;5018191;28;20237;-73
2022/11/10 09:21:46;;;;;;;20.50;4.90;;;16.00;80.90;;;;;;5017333;28;20546;-73
2022/11/10 09:24:12;;;;;;;19.02;3.97;;;16.20;79.90;;;;;;5015233;28;20054;-73
2022/11/10 09:26:38;;;;;;;13.73;3.22;;;16.30;78.40;;;;;;5012294;28;20022;-74
2022/11/10 09:29:03;;;;;;;17.10;3.95;;;16.50;78.50;;;;;;5010551;28;20014;-75
2022/11/10 09:31:29;;;;;;;16.80;3.75;;;16.60;77.60;;;;;;5013643;28;20026;-73
2022/11/10 09:33:55;;;;;;;11.98;3.20;;;16.50;77.30;;;;;;5011154;28;20089;-74
2022/11/10 09:36:20;;;;;;;16.73;3.97;;;16.60;78.10;;;;;;5011702;28;20026;-74
2022/11/10 09:39:00;;;;;;;18.67;3.90;;;16.80;76.60;;;;;;5014265;28;20025;-74
2022/11/10 09:41:28;;;;;;;16.88;4.25;;;16.80;76.80;;;;;;5012007;28;20032;-75
2022/11/10 09:44:15;;;;;;;19.73;3.97;;;16.90;76.90;;;;;;5013031;28;20026;-76
2022/11/10 09:47:09;;;;;;;14.80;3.38;;;16.90;76.40;;;;;;5013207;28;20026;-73
2022/11/10 09:49:40;;;;;;;15.68;3.53;;;17.10;76.80;;;;;;5013184;28;20059;-74
2022/11/10 09:52:07;;;;;;;16.58;4.28;;;17.20;75.50;;;;;;5014781;28;20033;-77
2022/11/10 09:55:21;;;;;;;11.20;2.60;;;17.20;75.40;;;;;;5014565;28;20340;-75
2022/11/10 09:57:48;;;;;;;15.15;3.33;;;17.40;79.00;;;;;;5014149;28;20460;-76
2022/11/10 10:00:16;;;;;;;15.30;4.35;;;17.50;75.30;;;;;;5019587;28;20036;-77
2022/11/10 10:02:47;;;;;;;15.73;3.10;;;17.60;74.60;;;;;;5014511;28;20403;-78
2022/11/10 10:05:45;;;;;;;16.33;3.72;;;17.80;77.90;;;;;;5021610;28;20036;-77
2022/11/10 10:08:22;;;;;;;11.27;2.65;;;17.90;76.40;;;;;;5021449;28;20064;-78
2022/11/10 10:11:14;;;;;;;15.55;3.65;;;18.10;78.20;;;;;;5016229;28;20049;-77
2022/11/10 10:14:17;;;;;;;14.18;3.58;;;18.20;74.50;;;;;;5016636;28;20057;-79
2022/11/10 10:17:07;;;;;;;14.77;3.60;;;18.30;73.30;;;;;;5018246;28;20029;-77
2022/11/10 10:19:45;;;;;;;11.05;3.22;;;18.40;72.80;;;;;;5022840;28;20044;-77
2022/11/10 10:22:32;;;;;;;13.80;3.30;;;18.40;72.50;;;;;;5013570;28;20037;-77
2022/11/10 10:25:08;;;;;;;14.43;3.17;;;18.30;73.80;;;;;;5008701;28;20037;-75
2022/11/10 10:27:37;;;;;;;16.88;3.40;;;18.10;73.00;;;;;;5013776;28;20212;-75
2022/11/10 10:30:23;;;;;;;15.98;3.20;;;18.20;72.30;;;;;;5013178;28;20551;-76
2022/11/10 10:32:56;;;;;;;16.10;4.40;;;18.20;73.30;;;;;;5012896;28;20050;-75
2022/11/10 10:35:22;;;;;;;14.85;3.88;;;18.20;73.20;;;;;;5013585;28;20494;-75
2022/11/10 10:37:56;;;;;;;13.20;3.63;;;18.20;72.30;;;;;;5011388;28;20030;-76
2022/11/10 10:40:23;;;;;;;20.13;4.65;;;18.40;74.80;;;;;;5013296;28;20104;-77
2022/11/10 10:42:59;;;;;;;14.50;3.75;;;18.50;71.10;;;;;;5012819;28;20059;-77
2022/11/10 10:45:31;;;;;;;13.63;3.25;;;18.60;71.80;;;;;;5014118;28;20045;-77
2022/11/10 10:47:57;;;;;;;13.82;3.20;;;18.70;70.30;;;;;;5015627;28;20048;-76
2022/11/10 10:50:26;;;;;;;14.00;3.08;;;18.70;71.40;;;;;;5013667;28;20113;-76
2022/11/10 10:53:15;;;;;;;16.15;3.15;;;18.70;71.60;;;;;;5014063;28;20026;-76
2022/11/10 10:56:00;;;;;;;14.05;3.28;;;18.80;73.90;;;;;;5017598;28;20032;-75
2022/11/10 10:58:26;;;;;;;11.15;2.20;;;18.90;73.50;;;;;;5013778;28;20112;-75
2022/11/10 11:01:12;;;;;;;12.45;3.78;;;19.00;78.10;;;;;;5009406;28;20564;-76
2022/11/10 11:03:50;;;;;;;9.40;2.45;;;18.90;74.30;;;;;;5011760;28;20061;-75
2022/11/10 11:06:18;;;;;;;13.30;2.85;;;18.90;78.10;;;;;;5013919;28;20151;-75
2022/11/10 11:08:58;;;;;;;14.27;3.78;;;18.90;71.30;;;;;;5011461;28;20561;-75
2022/11/10 11:11:25;;;;;;;;;;;19.00;70.40;;;;;;5012026;28;20038;-74
2022/11/10 11:13:51;;;;;;;16.95;3.33;;;18.70;69.80;;;;;;5009215;28;19918;-76
2022/11/10 11:16:18;;;;;;;14.75;2.85;;;18.70;73.40;;;;;;5012330;28;20025;-76
2022/11/10 11:18:44;;;;;;;15.13;3.13;;;18.70;73.00;;;;;;5010963;28;20151;-75
2022/11/10 11:21:32;;;;;;;11.98;3.03;;;18.70;70.20;;;;;;5011088;28;20120;-76
2022/11/10 11:24:18;;;;;;;13.38;3.10;;;19.00;70.00;;;;;;5030514;28;20180;-74
2022/11/10 11:26:59;;;;;;;13.75;3.47;;;18.90;72.40;;;;;;5021587;28;20372;-74
2022/11/10 11:29:27;;;;;;;17.38;4.07;;;18.70;70.10;;;;;;5022371;28;20061;-75
2022/11/10 11:32:11;;;;;;;15.52;3.17;;;18.60;71.00;;;;;;5033682;28;20048;-74
2022/11/10 11:34:51;;;;;;;14.70;2.85;;;18.50;73.00;;;;;;5013334;28;20038;-74
2022/11/10 11:37:28;;;;;;;12.02;3.22;;;18.40;72.90;;;;;;5014839;28;20484;-74
2022/11/10 11:40:31;;;;;;;11.93;2.58;;;18.50;70.80;;;;;;5016460;28;20026;-74
2022/11/10 11:43:18;;;;;;;14.70;3.92;;;18.80;74.90;;;;;;5015582;28;20527;-74
2022/11/10 11:45:51;;;;;;;18.52;3.95;;;18.80;69.90;;;;;;5017951;28;20033;-76
2022/11/10 11:48:56;;;;;;;13.27;2.83;;;19.00;70.70;;;;;;5013671;28;20046;-76
2022/11/10 11:51:38;;;;;;;10.30;2.70;;;19.00;74.10;;;;;;5032625;28;20049;-75
2022/11/10 11:54:26;;;;;;;11.82;2.42;;;19.00;71.20;;;;;;5015163;28;20049;-76
2022/11/10 11:57:00;;;;;;;21.23;3.78;;;18.90;71.60;;;;;;5026076;28;20030;-78
2022/11/10 12:00:01;;;;;;;12.10;3.25;;;18.90;70.30;;;;;;5019503;28;20021;-77
2022/11/10 12:02:48;;;;;;;12.77;3.15;;;19.10;70.60;;;;;;5027008;28;20026;-76
2022/11/10 12:05:42;;;;;;;11.13;2.65;;;19.00;70.50;;;;;;5033950;28;20041;-77
2022/11/10 12:08:14;;;;;;;13.75;3.45;;;19.20;70.90;;;;;;5029756;28;20087;-76
2022/11/10 12:10:57;;;;;;;12.93;3.53;;;19.20;70.10;;;;;;5028230;28;20024;-77
2022/11/10 12:14:24;;;;;;;12.27;3.15;;;19.00;69.40;;;;;;5030701;28;20612;-77
2022/11/10 12:17:09;;;;;;;16.90;3.05;;;19.00;72.00;;;;;;5025535;28;20045;-77
2022/11/10 12:20:24;;;;;;;12.77;2.80;;;19.10;69.30;;;;;;5041426;28;20101;-75
2022/11/10 12:23:14;;;;;;;15.18;3.15;;;19.20;71.40;;;;;;5015006;28;20536;-76
2022/11/10 12:25:40;;;;;;;12.45;3.05;;;19.10;71.10;;;;;;5015171;28;20032;-76
2022/11/10 12:28:42;;;;;;;12.55;2.72;;;19.10;71.10;;;;;;5026953;28;20034;-77
2022/11/10 12:31:16;;;;;;;10.52;2.45;;;19.00;71.80;;;;;;5034773;28;20037;-76
2022/11/10 12:34:03;;;;;;;13.55;2.83;;;19.00;71.10;;;;;;5029599;28;20055;-77
2022/11/10 12:36:30;;;;;;;7.30;1.90;;;18.90;69.40;;;;;;5019480;28;20036;-77
2022/11/10 12:39:13;;;;;;;7.03;2.13;;;18.80;71.40;;;;;;5034940;28;20552;-77
2022/11/10 12:41:48;;;;;;;12.43;2.28;;;18.80;72.70;;;;;;5020781;28;22402;-75
2022/11/10 12:44:36;;;;;;;18.42;2.92;;;18.70;71.50;;;;;;5031413;28;20112;-76
2022/11/10 12:47:05;;;;;;;13.43;3.25;;;18.60;73.40;;;;;;5025039;28;20030;-74
2022/11/10 12:50:01;;;;;;;12.60;2.60;;;18.30;70.30;;;;;;5023281;28;20111;-76
2022/11/10 12:52:41;;;;;;;12.98;3.17;;;18.00;71.80;;;;;;5008918;28;20037;-77
2022/11/10 12:55:12;;;;;;;11.07;2.88;;;18.00;74.70;;;;;;5033696;28;20030;-77
2022/11/10 12:57:41;;;;;;;14.07;2.80;;;17.90;73.20;;;;;;5021669;28;20340;-76
2022/11/10 13:00:26;;;;;;;15.32;2.47;;;17.80;75.10;;;;;;5033264;28;20403;-75
2022/11/10 13:02:54;;;;;;;12.68;3.35;;;17.70;74.60;;;;;;5020362;28;20548;-76
2022/11/10 13:05:36;;;;;;;10.23;2.70;;;17.70;75.10;;;;;;5031501;28;20018;-76